sensor_id;sensor_type;location;lat;lon;timestamp;P1;durP1;ratioP1;P2;durP2;ratioP2
76900;SDS011;65859;43.020;25.096;2024-01-07T00:05:29;6.00;;;2.78;;
76900;SDS011;65859;43.020;25.096;2024-01-07T00:08:15;4.60;;;2.63;;
76900;SDS011;65859;43.020;25.096;2024-01-07T00:11:00;8.05;;;3.65;;
76900;SDS011;65859;43.020;25.096;2024-01-07T00:13:45;5.38;;;2.28;;
76900;SDS011;65859;43.020;25.096;2024-01-07T00:16:29;4.88;;;2.65;;
76900;SDS011;65859;43.020;25.096;2024-01-07T00:19:15;11.02;;;3.53;;
76900;SDS011;65859;43.020;25.096;2024-01-07T00:21:59;4.63;;;2.42;;
76900;SDS011;65859;43.020;25.096;2024-01-07T00:24:44;6.47;;;2.55;;
76900;SDS011;65859;43.020;25.096;2024-01-07T00:27:28;7.38;;;2.97;;
76900;SDS011;65859;43.020;25.096;2024-01-07T00:30:13;8.30;;;2.70;;
76900;SDS011;65859;43.020;25.096;2024-01-07T00:32:58;7.18;;;4.13;;
76900;SDS011;65859;43.020;25.096;2024-01-07T00:35:42;6.05;;;3.08;;
76900;SDS011;65859;43.020;25.096;2024-01-07T00:38:29;8.95;;;3.60;;
76900;SDS011;65859;43.020;25.096;2024-01-07T00:41:13;11.65;;;4.28;;
76900;SDS011;65859;43.020;25.096;2024-01-07T00:43:58;10.25;;;4.30;;
76900;SDS011;65859;43.020;25.096;2024-01-07T00:46:42;7.70;;;4.20;;
76900;SDS011;65859;43.020;25.096;2024-01-07T00:49:27;9.30;;;4.85;;
76900;SDS011;65859;43.020;25.096;2024-01-07T00:52:12;11.60;;;4.93;;
76900;SDS011;65859;43.020;25.096;2024-01-07T00:54:56;9.65;;;5.53;;
76900;SDS011;65859;43.020;25.096;2024-01-07T00:57:41;10.60;;;6.05;;
76900;SDS011;65859;43.020;25.096;2024-01-07T01:00:26;10.73;;;6.22;;
76900;SDS011;65859;43.020;25.096;2024-01-07T01:03:12;7.15;;;4.78;;
76900;SDS011;65859;43.020;25.096;2024-01-07T01:05:57;6.85;;;4.25;;
76900;SDS011;65859;43.020;25.096;2024-01-07T01:08:43;6.60;;;3.88;;
76900;SDS011;65859;43.020;25.096;2024-01-07T01:11:27;8.35;;;5.57;;
76900;SDS011;65859;43.020;25.096;2024-01-07T01:14:12;7.85;;;5.13;;
76900;SDS011;65859;43.020;25.096;2024-01-07T01:16:56;8.73;;;5.10;;
76900;SDS011;65859;43.020;25.096;2024-01-07T01:19:41;10.40;;;6.03;;
76900;SDS011;65859;43.020;25.096;2024-01-07T01:22:26;9.98;;;5.85;;
76900;SDS011;65859;43.020;25.096;2024-01-07T01:25:10;10.48;;;5.60;;
76900;SDS011;65859;43.020;25.096;2024-01-07T01:27:55;9.82;;;5.63;;
76900;SDS011;65859;43.020;25.096;2024-01-07T01:30:40;8.70;;;5.25;;
76900;SDS011;65859;43.020;25.096;2024-01-07T01:33:25;7.50;;;4.90;;
76900;SDS011;65859;43.020;25.096;2024-01-07T01:36:10;9.07;;;5.35;;
76900;SDS011;65859;43.020;25.096;2024-01-07T01:38:56;7.85;;;4.38;;
76900;SDS011;65859;43.020;25.096;2024-01-07T01:41:41;7.35;;;5.10;;
76900;SDS011;65859;43.020;25.096;2024-01-07T01:44:25;21.58;;;10.18;;
76900;SDS011;65859;43.020;25.096;2024-01-07T01:47:14;9.05;;;5.57;;
76900;SDS011;65859;43.020;25.096;2024-01-07T01:50:00;8.75;;;5.22;;
76900;SDS011;65859;43.020;25.096;2024-01-07T01:52:46;8.45;;;4.43;;
76900;SDS011;65859;43.020;25.096;2024-01-07T01:55:32;9.73;;;5.18;;
76900;SDS011;65859;43.020;25.096;2024-01-07T01:58:17;7.57;;;4.47;;
76900;SDS011;65859;43.020;25.096;2024-01-07T02:01:03;9.35;;;4.82;;
76900;SDS011;65859;43.020;25.096;2024-01-07T02:03:48;9.80;;;4.82;;
76900;SDS011;65859;43.020;25.096;2024-01-07T02:06:35;11.35;;;4.40;;
76900;SDS011;65859;43.020;25.096;2024-01-07T02:09:21;7.32;;;3.83;;
76900;SDS011;65859;43.020;25.096;2024-01-07T02:12:06;9.75;;;4.00;;
76900;SDS011;65859;43.020;25.096;2024-01-07T02:14:55;4.45;;;3.45;;
76900;SDS011;65859;43.020;25.096;2024-01-07T02:17:39;4.47;;;3.58;;
76900;SDS011;65859;43.020;25.096;2024-01-07T02:20:24;4.00;;;3.60;;
76900;SDS011;65859;43.020;25.096;2024-01-07T02:23:09;4.15;;;3.28;;
76900;SDS011;65859;43.020;25.096;2024-01-07T02:25:54;4.18;;;3.65;;
76900;SDS011;65859;43.020;25.096;2024-01-07T02:28:38;3.60;;;3.10;;
76900;SDS011;65859;43.020;25.096;2024-01-07T02:31:23;5.10;;;2.90;;
76900;SDS011;65859;43.020;25.096;2024-01-07T02:34:10;3.15;;;2.67;;
76900;SDS011;65859;43.020;25.096;2024-01-07T02:36:55;4.30;;;2.88;;
76900;SDS011;65859;43.020;25.096;2024-01-07T02:39:41;6.28;;;3.17;;
76900;SDS011;65859;43.020;25.096;2024-01-07T02:42:26;3.28;;;2.92;;
76900;SDS011;65859;43.020;25.096;2024-01-07T02:45:11;4.60;;;2.88;;
76900;SDS011;65859;43.020;25.096;2024-01-07T02:47:56;5.07;;;3.00;;
76900;SDS011;65859;43.020;25.096;2024-01-07T02:50:41;7.78;;;3.83;;
76900;SDS011;65859;43.020;25.096;2024-01-07T02:53:26;6.50;;;2.78;;
76900;SDS011;65859;43.020;25.096;2024-01-07T02:56:10;2.95;;;2.38;;
76900;SDS011;65859;43.020;25.096;2024-01-07T02:58:55;3.33;;;2.28;;
76900;SDS011;65859;43.020;25.096;2024-01-07T03:01:41;6.25;;;2.20;;
76900;SDS011;65859;43.020;25.096;2024-01-07T03:04:26;3.70;;;2.38;;
76900;SDS011;65859;43.020;25.096;2024-01-07T03:07:10;3.35;;;2.30;;
76900;SDS011;65859;43.020;25.096;2024-01-07T03:09:57;2.95;;;1.80;;
76900;SDS011;65859;43.020;25.096;2024-01-07T03:12:42;2.78;;;1.70;;
76900;SDS011;65859;43.020;25.096;2024-01-07T03:15:27;2.13;;;1.77;;
76900;SDS011;65859;43.020;25.096;2024-01-07T03:18:12;2.63;;;1.58;;
76900;SDS011;65859;43.020;25.096;2024-01-07T03:20:56;3.78;;;1.60;;
76900;SDS011;65859;43.020;25.096;2024-01-07T03:23:41;3.05;;;1.70;;
76900;SDS011;65859;43.020;25.096;2024-01-07T03:26:29;2.22;;;1.45;;
76900;SDS011;65859;43.020;25.096;2024-01-07T03:29:16;3.63;;;1.55;;
76900;SDS011;65859;43.020;25.096;2024-01-07T03:32:01;2.25;;;1.70;;
76900;SDS011;65859;43.020;25.096;2024-01-07T03:34:45;3.42;;;1.90;;
76900;SDS011;65859;43.020;25.096;2024-01-07T03:37:30;2.67;;;1.92;;
76900;SDS011;65859;43.020;25.096;2024-01-07T03:40:16;2.65;;;1.40;;
76900;SDS011;65859;43.020;25.096;2024-01-07T03:43:01;2.20;;;1.50;;
76900;SDS011;65859;43.020;25.096;2024-01-07T03:45:46;1.55;;;1.33;;
76900;SDS011;65859;43.020;25.096;2024-01-07T03:48:33;3.17;;;1.30;;
76900;SDS011;65859;43.020;25.096;2024-01-07T03:51:17;4.97;;;1.73;;
76900;SDS011;65859;43.020;25.096;2024-01-07T03:54:02;3.80;;;1.60;;
76900;SDS011;65859;43.020;25.096;2024-01-07T03:56:46;2.40;;;1.70;;
76900;SDS011;65859;43.020;25.096;2024-01-07T03:59:31;4.20;;;1.55;;
76900;SDS011;65859;43.020;25.096;2024-01-07T04:02:16;1.85;;;1.30;;
76900;SDS011;65859;43.020;25.096;2024-01-07T04:05:00;3.80;;;1.60;;
76900;SDS011;65859;43.020;25.096;2024-01-07T04:07:45;2.00;;;1.33;;
76900;SDS011;65859;43.020;25.096;2024-01-07T04:10:31;2.97;;;1.25;;
76900;SDS011;65859;43.020;25.096;2024-01-07T04:13:16;2.13;;;1.90;;
76900;SDS011;65859;43.020;25.096;2024-01-07T04:16:00;3.03;;;1.30;;
76900;SDS011;65859;43.020;25.096;2024-01-07T04:18:46;6.57;;;2.10;;
76900;SDS011;65859;43.020;25.096;2024-01-07T04:21:31;3.13;;;1.40;;
76900;SDS011;65859;43.020;25.096;2024-01-07T04:24:15;2.22;;;1.45;;
76900;SDS011;65859;43.020;25.096;2024-01-07T04:27:00;4.70;;;1.70;;
76900;SDS011;65859;43.020;25.096;2024-01-07T04:29:45;7.88;;;1.90;;
76900;SDS011;65859;43.020;25.096;2024-01-07T04:32:29;5.85;;;2.40;;
76900;SDS011;65859;43.020;25.096;2024-01-07T04:35:14;5.13;;;1.83;;
76900;SDS011;65859;43.020;25.096;2024-01-07T04:37:59;10.02;;;1.80;;
76900;SDS011;65859;43.020;25.096;2024-01-07T04:40:45;6.15;;;1.88;;
76900;SDS011;65859;43.020;25.096;2024-01-07T04:43:30;12.68;;;4.53;;
76900;SDS011;65859;43.020;25.096;2024-01-07T04:46:15;4.85;;;2.45;;
76900;SDS011;65859;43.020;25.096;2024-01-07T04:49:01;3.55;;;1.58;;
76900;SDS011;65859;43.020;25.096;2024-01-07T04:51:46;5.15;;;2.30;;
76900;SDS011;65859;43.020;25.096;2024-01-07T04:54:30;3.58;;;1.35;;
76900;SDS011;65859;43.020;25.096;2024-01-07T04:57:15;6.65;;;1.50;;
76900;SDS011;65859;43.020;25.096;2024-01-07T05:00:01;6.05;;;1.95;;
76900;SDS011;65859;43.020;25.096;2024-01-07T05:02:47;3.60;;;1.80;;
76900;SDS011;65859;43.020;25.096;2024-01-07T05:05:31;4.43;;;2.20;;
76900;SDS011;65859;43.020;25.096;2024-01-07T05:08:16;3.53;;;1.92;;
76900;SDS011;65859;43.020;25.096;2024-01-07T05:11:03;2.78;;;1.38;;
76900;SDS011;65859;43.020;25.096;2024-01-07T05:13:48;3.05;;;2.08;;
76900;SDS011;65859;43.020;25.096;2024-01-07T05:16:33;3.88;;;1.70;;
76900;SDS011;65859;43.020;25.096;2024-01-07T05:19:18;4.30;;;2.13;;
76900;SDS011;65859;43.020;25.096;2024-01-07T05:22:03;3.70;;;2.20;;
76900;SDS011;65859;43.020;25.096;2024-01-07T05:24:48;7.72;;;4.85;;
76900;SDS011;65859;43.020;25.096;2024-01-07T05:27:33;4.72;;;3.00;;
76900;SDS011;65859;43.020;25.096;2024-01-07T05:30:18;6.18;;;3.60;;
76900;SDS011;65859;43.020;25.096;2024-01-07T05:33:02;7.60;;;5.00;;
76900;SDS011;65859;43.020;25.096;2024-01-07T05:35:48;6.75;;;4.55;;
76900;SDS011;65859;43.020;25.096;2024-01-07T05:38:32;8.48;;;5.85;;
76900;SDS011;65859;43.020;25.096;2024-01-07T05:41:18;6.57;;;5.45;;
76900;SDS011;65859;43.020;25.096;2024-01-07T05:44:03;10.07;;;6.70;;
76900;SDS011;65859;43.020;25.096;2024-01-07T05:46:50;9.98;;;6.72;;
76900;SDS011;65859;43.020;25.096;2024-01-07T05:49:34;8.93;;;7.15;;
76900;SDS011;65859;43.020;25.096;2024-01-07T05:52:20;6.80;;;5.95;;
76900;SDS011;65859;43.020;25.096;2024-01-07T05:55:05;7.40;;;5.07;;
76900;SDS011;65859;43.020;25.096;2024-01-07T05:57:50;7.78;;;5.65;;
76900;SDS011;65859;43.020;25.096;2024-01-07T06:00:34;11.65;;;6.72;;
76900;SDS011;65859;43.020;25.096;2024-01-07T06:03:19;8.35;;;6.43;;
76900;SDS011;65859;43.020;25.096;2024-01-07T06:06:04;8.68;;;7.05;;
76900;SDS011;65859;43.020;25.096;2024-01-07T06:08:49;6.35;;;5.70;;
76900;SDS011;65859;43.020;25.096;2024-01-07T06:11:35;10.15;;;8.77;;
76900;SDS011;65859;43.020;25.096;2024-01-07T06:14:21;6.65;;;5.80;;
76900;SDS011;65859;43.020;25.096;2024-01-07T06:17:06;14.75;;;13.05;;
76900;SDS011;65859;43.020;25.096;2024-01-07T06:19:50;14.07;;;10.73;;
76900;SDS011;65859;43.020;25.096;2024-01-07T06:22:38;17.23;;;12.32;;
76900;SDS011;65859;43.020;25.096;2024-01-07T06:25:22;7.18;;;6.35;;
76900;SDS011;65859;43.020;25.096;2024-01-07T06:28:10;10.32;;;6.97;;
76900;SDS011;65859;43.020;25.096;2024-01-07T06:30:55;8.50;;;6.32;;
76900;SDS011;65859;43.020;25.096;2024-01-07T06:33:39;7.45;;;6.65;;
76900;SDS011;65859;43.020;25.096;2024-01-07T06:36:24;9.43;;;7.88;;
76900;SDS011;65859;43.020;25.096;2024-01-07T06:39:09;10.15;;;7.57;;
76900;SDS011;65859;43.020;25.096;2024-01-07T06:41:56;11.68;;;7.13;;
76900;SDS011;65859;43.020;25.096;2024-01-07T06:44:40;12.10;;;7.85;;
76900;SDS011;65859;43.020;25.096;2024-01-07T06:47:25;9.60;;;6.53;;
76900;SDS011;65859;43.020;25.096;2024-01-07T06:50:10;11.40;;;7.20;;
76900;SDS011;65859;43.020;25.096;2024-01-07T06:52:55;8.60;;;6.22;;
76900;SDS011;65859;43.020;25.096;2024-01-07T06:55:40;6.90;;;4.13;;
76900;SDS011;65859;43.020;25.096;2024-01-07T06:58:25;3.60;;;1.88;;
76900;SDS011;65859;43.020;25.096;2024-01-07T07:01:10;4.00;;;1.73;;
76900;SDS011;65859;43.020;25.096;2024-01-07T07:03:55;4.82;;;2.72;;
76900;SDS011;65859;43.020;25.096;2024-01-07T07:06:39;4.25;;;2.35;;
76900;SDS011;65859;43.020;25.096;2024-01-07T07:09:24;4.05;;;2.17;;
76900;SDS011;65859;43.020;25.096;2024-01-07T07:12:11;9.40;;;5.40;;
76900;SDS011;65859;43.020;25.096;2024-01-07T07:14:56;4.28;;;2.70;;
76900;SDS011;65859;43.020;25.096;2024-01-07T07:17:41;6.65;;;4.53;;
76900;SDS011;65859;43.020;25.096;2024-01-07T07:20:25;7.57;;;4.65;;
76900;SDS011;65859;43.020;25.096;2024-01-07T07:23:10;7.18;;;4.82;;
76900;SDS011;65859;43.020;25.096;2024-01-07T07:25:55;4.65;;;3.53;;
76900;SDS011;65859;43.020;25.096;2024-01-07T07:28:40;6.65;;;5.18;;
76900;SDS011;65859;43.020;25.096;2024-01-07T07:31:25;4.07;;;3.05;;
76900;SDS011;65859;43.020;25.096;2024-01-07T07:34:09;6.50;;;3.35;;
76900;SDS011;65859;43.020;25.096;2024-01-07T07:36:55;3.95;;;3.53;;
76900;SDS011;65859;43.020;25.096;2024-01-07T07:39:40;5.57;;;4.95;;
76900;SDS011;65859;43.020;25.096;2024-01-07T07:42:26;5.97;;;4.05;;
76900;SDS011;65859;43.020;25.096;2024-01-07T07:45:11;6.10;;;4.50;;
76900;SDS011;65859;43.020;25.096;2024-01-07T07:47:56;5.93;;;4.15;;
76900;SDS011;65859;43.020;25.096;2024-01-07T07:50:41;7.57;;;4.50;;
76900;SDS011;65859;43.020;25.096;2024-01-07T07:53:26;5.78;;;4.20;;
76900;SDS011;65859;43.020;25.096;2024-01-07T07:56:10;4.78;;;3.05;;
76900;SDS011;65859;43.020;25.096;2024-01-07T07:58:55;3.35;;;2.83;;
76900;SDS011;65859;43.020;25.096;2024-01-07T08:01:40;5.30;;;3.08;;
76900;SDS011;65859;43.020;25.096;2024-01-07T08:04:24;4.10;;;2.47;;
76900;SDS011;65859;43.020;25.096;2024-01-07T08:07:10;3.10;;;2.80;;
76900;SDS011;65859;43.020;25.096;2024-01-07T08:09:55;5.60;;;3.67;;
76900;SDS011;65859;43.020;25.096;2024-01-07T08:12:42;5.78;;;3.45;;
76900;SDS011;65859;43.020;25.096;2024-01-07T08:15:27;7.97;;;4.88;;
76900;SDS011;65859;43.020;25.096;2024-01-07T08:18:12;5.03;;;4.00;;
76900;SDS011;65859;43.020;25.096;2024-01-07T08:20:57;3.55;;;3.05;;
76900;SDS011;65859;43.020;25.096;2024-01-07T08:23:42;4.20;;;2.60;;
76900;SDS011;65859;43.020;25.096;2024-01-07T08:26:26;3.88;;;2.75;;
76900;SDS011;65859;43.020;25.096;2024-01-07T08:29:11;5.22;;;3.70;;
76900;SDS011;65859;43.020;25.096;2024-01-07T08:31:56;7.55;;;3.80;;
76900;SDS011;65859;43.020;25.096;2024-01-07T08:34:42;3.72;;;3.08;;
76900;SDS011;65859;43.020;25.096;2024-01-07T08:37:26;5.03;;;3.60;;
76900;SDS011;65859;43.020;25.096;2024-01-07T08:40:12;3.03;;;2.00;;
76900;SDS011;65859;43.020;25.096;2024-01-07T08:42:58;6.65;;;3.33;;
76900;SDS011;65859;43.020;25.096;2024-01-07T08:45:43;6.78;;;3.30;;
76900;SDS011;65859;43.020;25.096;2024-01-07T08:48:28;15.27;;;9.52;;
76900;SDS011;65859;43.020;25.096;2024-01-07T08:51:13;76.00;;;34.95;;
76900;SDS011;65859;43.020;25.096;2024-01-07T08:53:58;18.20;;;9.25;;
76900;SDS011;65859;43.020;25.096;2024-01-07T08:56:42;35.53;;;23.67;;
76900;SDS011;65859;43.020;25.096;2024-01-07T08:59:28;9.30;;;5.20;;
76900;SDS011;65859;43.020;25.096;2024-01-07T09:02:13;8.88;;;3.40;;
76900;SDS011;65859;43.020;25.096;2024-01-07T09:04:58;2.88;;;1.60;;
76900;SDS011;65859;43.020;25.096;2024-01-07T09:07:43;11.07;;;5.95;;
76900;SDS011;65859;43.020;25.096;2024-01-07T09:10:28;22.63;;;17.13;;
76900;SDS011;65859;43.020;25.096;2024-01-07T09:13:14;17.30;;;14.95;;
76900;SDS011;65859;43.020;25.096;2024-01-07T09:15:59;9.10;;;8.07;;
76900;SDS011;65859;43.020;25.096;2024-01-07T09:18:44;6.53;;;3.65;;
76900;SDS011;65859;43.020;25.096;2024-01-07T09:21:29;13.52;;;7.22;;
76900;SDS011;65859;43.020;25.096;2024-01-07T09:24:14;7.55;;;5.68;;
76900;SDS011;65859;43.020;25.096;2024-01-07T09:26:59;9.00;;;5.85;;
76900;SDS011;65859;43.020;25.096;2024-01-07T09:29:44;13.10;;;8.05;;
76900;SDS011;65859;43.020;25.096;2024-01-07T09:32:28;10.43;;;6.03;;
76900;SDS011;65859;43.020;25.096;2024-01-07T09:35:15;15.35;;;9.43;;
76900;SDS011;65859;43.020;25.096;2024-01-07T09:38:00;6.97;;;3.88;;
76900;SDS011;65859;43.020;25.096;2024-01-07T09:40:45;7.57;;;4.93;;
76900;SDS011;65859;43.020;25.096;2024-01-07T09:43:31;3.35;;;2.40;;
76900;SDS011;65859;43.020;25.096;2024-01-07T09:46:16;6.20;;;2.22;;
76900;SDS011;65859;43.020;25.096;2024-01-07T09:49:01;9.48;;;5.38;;
76900;SDS011;65859;43.020;25.096;2024-01-07T09:51:47;5.03;;;2.40;;
76900;SDS011;65859;43.020;25.096;2024-01-07T09:54:33;5.40;;;2.80;;
76900;SDS011;65859;43.020;25.096;2024-01-07T09:57:23;2.38;;;1.90;;
76900;SDS011;65859;43.020;25.096;2024-01-07T10:00:08;3.00;;;1.70;;
76900;SDS011;65859;43.020;25.096;2024-01-07T10:02:54;2.33;;;1.30;;
76900;SDS011;65859;43.020;25.096;2024-01-07T10:05:40;2.38;;;1.40;;
76900;SDS011;65859;43.020;25.096;2024-01-07T10:08:24;4.57;;;2.13;;
76900;SDS011;65859;43.020;25.096;2024-01-07T10:11:09;5.97;;;3.20;;
76900;SDS011;65859;43.020;25.096;2024-01-07T10:13:55;5.72;;;2.90;;
76900;SDS011;65859;43.020;25.096;2024-01-07T10:16:40;7.25;;;5.35;;
76900;SDS011;65859;43.020;25.096;2024-01-07T10:19:24;8.90;;;6.70;;
76900;SDS011;65859;43.020;25.096;2024-01-07T10:22:09;4.85;;;3.60;;
76900;SDS011;65859;43.020;25.096;2024-01-07T10:24:56;3.22;;;1.85;;
76900;SDS011;65859;43.020;25.096;2024-01-07T10:27:41;1.48;;;1.00;;
76900;SDS011;65859;43.020;25.096;2024-01-07T10:30:27;3.85;;;2.65;;
76900;SDS011;65859;43.020;25.096;2024-01-07T10:33:16;1.80;;;0.80;;
76900;SDS011;65859;43.020;25.096;2024-01-07T10:36:05;1.30;;;0.68;;
76900;SDS011;65859;43.020;25.096;2024-01-07T10:38:50;3.13;;;1.50;;
76900;SDS011;65859;43.020;25.096;2024-01-07T10:41:36;3.13;;;1.65;;
76900;SDS011;65859;43.020;25.096;2024-01-07T10:44:25;1.20;;;0.90;;
76900;SDS011;65859;43.020;25.096;2024-01-07T10:47:14;3.50;;;1.73;;
76900;SDS011;65859;43.020;25.096;2024-01-07T10:50:03;6.20;;;2.75;;
76900;SDS011;65859;43.020;25.096;2024-01-07T10:52:50;3.28;;;2.28;;
76900;SDS011;65859;43.020;25.096;2024-01-07T10:55:38;3.15;;;2.03;;
76900;SDS011;65859;43.020;25.096;2024-01-07T10:58:32;2.17;;;1.60;;
76900;SDS011;65859;43.020;25.096;2024-01-07T11:01:18;2.42;;;1.40;;
76900;SDS011;65859;43.020;25.096;2024-01-07T11:04:10;4.90;;;3.63;;
76900;SDS011;65859;43.020;25.096;2024-01-07T11:07:09;2.47;;;1.98;;
76900;SDS011;65859;43.020;25.096;2024-01-07T11:10:20;7.13;;;6.13;;
76900;SDS011;65859;43.020;25.096;2024-01-07T11:19:28;3.38;;;1.60;;
76900;SDS011;65859;43.020;25.096;2024-01-07T11:22:25;3.03;;;0.98;;
76900;SDS011;65859;43.020;25.096;2024-01-07T11:25:30;2.00;;;1.20;;
76900;SDS011;65859;43.020;25.096;2024-01-07T11:28:16;2.53;;;0.80;;
76900;SDS011;65859;43.020;25.096;2024-01-07T11:31:01;2.63;;;0.90;;
76900;SDS011;65859;43.020;25.096;2024-01-07T11:33:50;3.20;;;1.02;;
76900;SDS011;65859;43.020;25.096;2024-01-07T11:36:35;2.55;;;1.13;;
76900;SDS011;65859;43.020;25.096;2024-01-07T11:39:20;1.67;;;0.90;;
76900;SDS011;65859;43.020;25.096;2024-01-07T11:42:05;2.83;;;1.13;;
76900;SDS011;65859;43.020;25.096;2024-01-07T11:44:51;3.65;;;1.35;;
76900;SDS011;65859;43.020;25.096;2024-01-07T11:47:38;3.35;;;2.10;;
76900;SDS011;65859;43.020;25.096;2024-01-07T11:50:23;7.07;;;3.53;;
76900;SDS011;65859;43.020;25.096;2024-01-07T11:53:11;6.10;;;3.28;;
76900;SDS011;65859;43.020;25.096;2024-01-07T11:55:56;10.60;;;3.78;;
76900;SDS011;65859;43.020;25.096;2024-01-07T11:58:41;8.63;;;4.43;;
76900;SDS011;65859;43.020;25.096;2024-01-07T12:01:27;6.25;;;5.63;;
76900;SDS011;65859;43.020;25.096;2024-01-07T12:04:12;5.03;;;3.38;;
76900;SDS011;65859;43.020;25.096;2024-01-07T12:06:56;2.80;;;1.80;;
76900;SDS011;65859;43.020;25.096;2024-01-07T12:09:42;3.22;;;1.60;;
76900;SDS011;65859;43.020;25.096;2024-01-07T12:12:27;4.57;;;2.30;;
76900;SDS011;65859;43.020;25.096;2024-01-07T12:15:12;6.35;;;4.20;;
76900;SDS011;65859;43.020;25.096;2024-01-07T12:17:58;5.38;;;4.60;;
76900;SDS011;65859;43.020;25.096;2024-01-07T12:20:54;6.20;;;3.83;;
76900;SDS011;65859;43.020;25.096;2024-01-07T12:23:40;7.97;;;5.07;;
76900;SDS011;65859;43.020;25.096;2024-01-07T12:26:26;10.68;;;5.00;;
76900;SDS011;65859;43.020;25.096;2024-01-07T12:29:11;8.40;;;5.00;;
76900;SDS011;65859;43.020;25.096;2024-01-07T12:31:57;7.70;;;4.35;;
76900;SDS011;65859;43.020;25.096;2024-01-07T12:34:43;7.63;;;3.53;;
76900;SDS011;65859;43.020;25.096;2024-01-07T12:37:27;8.88;;;3.78;;
76900;SDS011;65859;43.020;25.096;2024-01-07T12:40:13;10.27;;;4.15;;
76900;SDS011;65859;43.020;25.096;2024-01-07T12:42:57;12.52;;;7.05;;
76900;SDS011;65859;43.020;25.096;2024-01-07T12:45:42;14.73;;;7.78;;
76900;SDS011;65859;43.020;25.096;2024-01-07T12:48:29;21.30;;;10.02;;
76900;SDS011;65859;43.020;25.096;2024-01-07T12:51:14;20.27;;;8.65;;
76900;SDS011;65859;43.020;25.096;2024-01-07T12:53:59;16.85;;;6.10;;
76900;SDS011;65859;43.020;25.096;2024-01-07T12:56:46;14.40;;;6.40;;
76900;SDS011;65859;43.020;25.096;2024-01-07T12:59:31;10.45;;;6.07;;
76900;SDS011;65859;43.020;25.096;2024-01-07T13:02:16;9.57;;;6.13;;
76900;SDS011;65859;43.020;25.096;2024-01-07T13:05:00;8.38;;;5.93;;
76900;SDS011;65859;43.020;25.096;2024-01-07T13:07:47;8.02;;;5.45;;
76900;SDS011;65859;43.020;25.096;2024-01-07T13:10:33;7.90;;;5.95;;
76900;SDS011;65859;43.020;25.096;2024-01-07T13:13:18;11.23;;;8.85;;
76900;SDS011;65859;43.020;25.096;2024-01-07T13:16:02;15.07;;;6.97;;
76900;SDS011;65859;43.020;25.096;2024-01-07T13:18:48;13.82;;;8.80;;
76900;SDS011;65859;43.020;25.096;2024-01-07T13:21:33;9.63;;;5.80;;
76900;SDS011;65859;43.020;25.096;2024-01-07T13:24:18;12.57;;;5.72;;
76900;SDS011;65859;43.020;25.096;2024-01-07T13:27:03;7.47;;;4.80;;
76900;SDS011;65859;43.020;25.096;2024-01-07T13:29:49;10.25;;;6.68;;
76900;SDS011;65859;43.020;25.096;2024-01-07T13:32:34;9.02;;;6.22;;
76900;SDS011;65859;43.020;25.096;2024-01-07T13:35:20;7.78;;;5.18;;
76900;SDS011;65859;43.020;25.096;2024-01-07T13:38:05;6.50;;;4.13;;
76900;SDS011;65859;43.020;25.096;2024-01-07T13:40:50;8.75;;;4.85;;
76900;SDS011;65859;43.020;25.096;2024-01-07T13:43:35;10.07;;;4.57;;
76900;SDS011;65859;43.020;25.096;2024-01-07T13:46:24;8.65;;;5.35;;
76900;SDS011;65859;43.020;25.096;2024-01-07T13:49:10;7.57;;;4.70;;
76900;SDS011;65859;43.020;25.096;2024-01-07T13:51:55;10.93;;;4.93;;
76900;SDS011;65859;43.020;25.096;2024-01-07T13:54:40;7.63;;;4.70;;
76900;SDS011;65859;43.020;25.096;2024-01-07T13:57:24;8.43;;;5.18;;
76900;SDS011;65859;43.020;25.096;2024-01-07T14:00:09;9.80;;;5.20;;
76900;SDS011;65859;43.020;25.096;2024-01-07T14:02:56;7.25;;;5.15;;
76900;SDS011;65859;43.020;25.096;2024-01-07T14:05:41;9.50;;;5.50;;
76900;SDS011;65859;43.020;25.096;2024-01-07T14:08:26;7.50;;;5.93;;
76900;SDS011;65859;43.020;25.096;2024-01-07T14:11:11;11.07;;;6.82;;
76900;SDS011;65859;43.020;25.096;2024-01-07T14:13:56;15.30;;;9.77;;
76900;SDS011;65859;43.020;25.096;2024-01-07T14:16:41;13.80;;;8.20;;
76900;SDS011;65859;43.020;25.096;2024-01-07T14:19:27;15.23;;;10.73;;
76900;SDS011;65859;43.020;25.096;2024-01-07T14:22:11;11.35;;;7.93;;
76900;SDS011;65859;43.020;25.096;2024-01-07T14:24:56;10.27;;;7.13;;
76900;SDS011;65859;43.020;25.096;2024-01-07T14:27:43;12.65;;;8.98;;
76900;SDS011;65859;43.020;25.096;2024-01-07T14:30:27;7.18;;;4.93;;
76900;SDS011;65859;43.020;25.096;2024-01-07T14:33:13;9.98;;;5.82;;
76900;SDS011;65859;43.020;25.096;2024-01-07T14:35:57;11.45;;;6.50;;
76900;SDS011;65859;43.020;25.096;2024-01-07T14:38:43;7.25;;;4.80;;
76900;SDS011;65859;43.020;25.096;2024-01-07T14:41:29;13.88;;;7.20;;
76900;SDS011;65859;43.020;25.096;2024-01-07T14:44:14;13.70;;;8.10;;
76900;SDS011;65859;43.020;25.096;2024-01-07T14:46:59;10.30;;;7.07;;
76900;SDS011;65859;43.020;25.096;2024-01-07T14:49:45;10.00;;;6.03;;
76900;SDS011;65859;43.020;25.096;2024-01-07T14:52:29;9.88;;;6.57;;
76900;SDS011;65859;43.020;25.096;2024-01-07T14:55:14;12.82;;;7.95;;
76900;SDS011;65859;43.020;25.096;2024-01-07T14:57:59;10.15;;;7.22;;
76900;SDS011;65859;43.020;25.096;2024-01-07T15:00:44;8.38;;;6.45;;
76900;SDS011;65859;43.020;25.096;2024-01-07T15:03:28;10.55;;;7.15;;
76900;SDS011;65859;43.020;25.096;2024-01-07T15:06:13;9.98;;;7.40;;
76900;SDS011;65859;43.020;25.096;2024-01-07T15:08:59;10.13;;;8.00;;
76900;SDS011;65859;43.020;25.096;2024-01-07T15:11:44;12.27;;;8.35;;
76900;SDS011;65859;43.020;25.096;2024-01-07T15:14:31;12.90;;;8.75;;
76900;SDS011;65859;43.020;25.096;2024-01-07T15:17:16;14.20;;;10.10;;
76900;SDS011;65859;43.020;25.096;2024-01-07T15:20:03;16.58;;;11.60;;
76900;SDS011;65859;43.020;25.096;2024-01-07T15:22:49;18.92;;;11.63;;
76900;SDS011;65859;43.020;25.096;2024-01-07T15:25:34;19.88;;;14.57;;
76900;SDS011;65859;43.020;25.096;2024-01-07T15:28:19;17.13;;;11.57;;
76900;SDS011;65859;43.020;25.096;2024-01-07T15:31:05;16.80;;;13.85;;
76900;SDS011;65859;43.020;25.096;2024-01-07T15:33:59;16.40;;;12.52;;
76900;SDS011;65859;43.020;25.096;2024-01-07T15:36:46;27.40;;;19.80;;
76900;SDS011;65859;43.020;25.096;2024-01-07T15:39:31;21.60;;;14.57;;
76900;SDS011;65859;43.020;25.096;2024-01-07T15:42:22;19.77;;;15.25;;
76900;SDS011;65859;43.020;25.096;2024-01-07T15:45:12;27.10;;;19.50;;
76900;SDS011;65859;43.020;25.096;2024-01-07T15:48:02;24.92;;;19.17;;
76900;SDS011;65859;43.020;25.096;2024-01-07T15:50:50;33.45;;;25.98;;
76900;SDS011;65859;43.020;25.096;2024-01-07T15:53:37;19.30;;;13.60;;
76900;SDS011;65859;43.020;25.096;2024-01-07T15:56:22;40.70;;;26.48;;
76900;SDS011;65859;43.020;25.096;2024-01-07T15:59:07;53.65;;;36.53;;
76900;SDS011;65859;43.020;25.096;2024-01-07T16:01:52;35.17;;;26.00;;
76900;SDS011;65859;43.020;25.096;2024-01-07T16:04:37;36.03;;;21.55;;
76900;SDS011;65859;43.020;25.096;2024-01-07T16:07:22;45.08;;;29.33;;
76900;SDS011;65859;43.020;25.096;2024-01-07T16:10:07;56.83;;;34.13;;
76900;SDS011;65859;43.020;25.096;2024-01-07T16:12:52;86.03;;;49.83;;
76900;SDS011;65859;43.020;25.096;2024-01-07T16:15:37;27.20;;;17.42;;
76900;SDS011;65859;43.020;25.096;2024-01-07T16:18:22;111.07;;;59.90;;
76900;SDS011;65859;43.020;25.096;2024-01-07T16:21:09;176.40;;;108.88;;
76900;SDS011;65859;43.020;25.096;2024-01-07T16:23:54;52.65;;;30.63;;
76900;SDS011;65859;43.020;25.096;2024-01-07T16:26:42;35.72;;;22.95;;